Time;durP1;ratioP1;P1;durP2;ratioP2;P2;SDS_P1;SDS_P2;PMS_P1;PMS_P2;Temp;Humidity;BMP_temperature;BMP_pressure;BME280_temperature;BME280_humidity;BME280_pressure;Samples;Min_cycle;Max_cycle;Signal;HPM_P1;HPM_P2
2021/10/06 00:02:22;;;;;;;11.20;10.00;;;14.30;99.90;;;;;;5052356;28;20440;-50
2021/10/06 00:04:48;;;;;;;11.10;10.00;;;13.60;99.90;;;;;;5052235;28;20955;-50
2021/10/06 00:07:15;;;;;;;11.97;10.87;;;14.30;99.90;;;;;;5052292;28;20431;-50
2021/10/06 00:09:41;;;;;;;12.40;9.90;;;13.90;99.90;;;;;;5051866;28;20869;-50
2021/10/06 00:12:08;;;;;;;11.80;10.67;;;14.30;99.90;;;;;;5052212;28;20479;-50
2021/10/06 00:14:34;;;;;;;10.97;9.97;;;13.90;99.90;;;;;;5052287;28;20441;-50
2021/10/06 00:17:02;;;;;;;18.63;11.17;;;14.00;99.90;;;;;;5052170;28;20453;-50
2021/10/06 00:19:29;;;;;;;10.70;9.70;;;14.00;99.90;;;;;;5051555;28;20931;-50
2021/10/06 00:21:57;;;;;;;11.83;10.17;;;13.90;99.90;;;;;;5052379;28;20792;-50
2021/10/06 00:24:24;;;;;;;10.50;9.50;;;14.50;99.90;;;;;;5052005;28;20798;-50
2021/10/06 00:26:50;;;;;;;10.90;9.90;;;14.20;99.90;;;;;;5052000;28;20442;-50
2021/10/06 00:29:17;;;;;;;9.77;8.87;;;14.20;99.90;;;;;;5051709;28;20408;-50
2021/10/06 00:31:44;;;;;;;9.20;8.30;;;14.00;99.90;;;;;;5051706;28;20820;-50
2021/10/06 00:34:11;;;;;;;10.33;9.33;;;14.10;99.90;;;;;;5051718;28;20401;-49
2021/10/06 00:36:38;;;;;;;11.10;9.00;;;13.60;99.90;;;;;;5051891;28;20481;-50
2021/10/06 00:39:05;;;;;;;10.03;9.10;;;14.00;99.90;;;;;;5051479;28;21041;-50
2021/10/06 00:41:31;;;;;;;10.40;9.40;;;13.80;99.90;;;;;;5051771;28;20449;-51
2021/10/06 00:43:58;;;;;;;10.40;9.00;;;13.40;99.90;;;;;;5051798;28;20468;-50
2021/10/06 00:46:24;;;;;;;11.17;9.40;;;14.20;99.90;;;;;;5051637;28;20520;-51
2021/10/06 00:48:51;;;;;;;12.10;8.47;;;13.90;99.90;;;;;;5051239;28;20430;-51
2021/10/06 00:51:20;;;;;;;8.87;7.97;;;13.70;99.90;;;;;;5051716;28;20482;-51
2021/10/06 00:53:47;;;;;;;10.37;9.37;;;13.70;99.90;;;;;;5051552;28;21003;-51
2021/10/06 00:56:14;;;;;;;12.13;9.87;;;13.40;99.90;;;;;;5051473;28;20447;-50
2021/10/06 00:58:42;;;;;;;9.70;8.80;;;13.90;99.90;;;;;;5051153;28;20437;-51
2021/10/06 01:01:08;;;;;;;9.90;8.03;;;13.60;99.90;;;;;;5051873;28;20438;-51
2021/10/06 01:03:35;;;;;;;11.30;10.10;;;13.60;99.90;;;;;;5051678;28;20438;-51
2021/10/06 01:06:01;;;;;;;9.90;9.00;;;13.60;99.90;;;;;;5051629;28;20487;-51
2021/10/06 01:08:29;;;;;;;14.27;9.63;;;13.60;99.90;;;;;;5051398;28;20473;-51
2021/10/06 01:10:57;;;;;;;10.73;9.73;;;13.80;99.90;;;;;;5051485;28;20442;-51
2021/10/06 01:13:23;;;;;;;9.53;8.60;;;13.50;99.90;;;;;;5051400;28;20472;-51
2021/10/06 01:15:52;;;;;;;10.80;8.80;;;13.30;99.90;;;;;;5051648;28;20465;-51
2021/10/06 01:18:19;;;;;;;9.20;8.30;;;13.50;99.90;;;;;;5051087;28;20436;-51
2021/10/06 01:20:45;;;;;;;10.30;9.20;;;13.30;99.90;;;;;;5051451;28;20420;-51
2021/10/06 01:23:15;;;;;;;10.33;8.70;;;13.30;99.90;;;;;;5033584;28;20448;-51
2021/10/06 01:25:42;;;;;;;10.57;9.57;;;13.40;99.90;;;;;;5051394;28;20836;-51
2021/10/06 01:28:09;;;;;;;8.93;8.10;;;13.10;99.90;;;;;;5050814;28;20460;-51
2021/10/06 01:30:36;;;;;;;10.60;8.73;;;13.00;99.90;;;;;;5051193;28;20438;-50
2021/10/06 01:33:03;;;;;;;10.60;9.50;;;13.50;99.90;;;;;;5051148;28;20988;-51
2021/10/06 01:35:29;;;;;;;10.23;9.33;;;13.40;99.90;;;;;;5051181;28;20437;-51
2021/10/06 01:37:57;;;;;;;9.10;8.20;;;13.30;99.90;;;;;;5050692;28;20476;-51
2021/10/06 01:40:25;;;;;;;10.43;8.80;;;13.60;99.90;;;;;;5051222;28;20853;-51
2021/10/06 01:42:53;;;;;;;10.20;8.17;;;13.50;99.90;;;;;;5050998;28;20449;-50
2021/10/06 01:45:22;;;;;;;10.83;8.73;;;13.20;99.90;;;;;;5051655;28;20806;-50
2021/10/06 01:47:49;;;;;;;9.53;8.53;;;13.60;99.90;;;;;;5054567;28;20465;-50
2021/10/06 01:50:21;;;;;;;8.90;8.00;;;13.60;99.90;;;;;;5055033;28;20787;-50
2021/10/06 01:52:48;;;;;;;8.57;7.63;;;13.50;99.90;;;;;;5054837;28;20477;-50
2021/10/06 01:55:15;;;;;;;8.77;7.70;;;13.40;99.90;;;;;;5054796;28;20441;-50
2021/10/06 01:57:43;;;;;;;8.60;7.00;;;13.50;99.90;;;;;;5054403;28;20464;-50
2021/10/06 02:00:11;;;;;;;9.30;8.37;;;13.40;99.90;;;;;;5036922;28;20562;-50
2021/10/06 02:02:38;;;;;;;8.37;7.57;;;13.50;99.90;;;;;;5054761;28;20430;-51
2021/10/06 02:05:05;;;;;;;7.87;7.07;;;13.70;99.90;;;;;;5036642;28;20534;-51
2021/10/06 02:07:31;;;;;;;8.03;7.33;;;13.80;99.90;;;;;;5054512;28;20439;-51
2021/10/06 02:09:58;;;;;;;8.80;7.90;;;13.80;99.90;;;;;;5054148;28;20440;-51
2021/10/06 02:12:25;;;;;;;8.47;7.53;;;13.60;99.90;;;;;;5054516;28;20481;-51
2021/10/06 02:14:52;;;;;;;8.20;7.47;;;13.40;99.90;;;;;;5054495;28;20495;-51
2021/10/06 02:17:19;;;;;;;8.13;6.90;;;13.90;99.90;;;;;;5054368;28;20509;-50
2021/10/06 02:19:46;;;;;;;10.40;7.37;;;13.40;99.90;;;;;;5054023;28;20437;-51
2021/10/06 02:22:12;;;;;;;8.00;6.83;;;13.90;99.90;;;;;;5054429;28;20784;-51
2021/10/06 02:24:39;;;;;;;7.33;6.63;;;13.80;99.90;;;;;;5054240;28;20448;-51
2021/10/06 02:27:05;;;;;;;7.53;6.73;;;13.70;99.90;;;;;;5054146;28;20495;-51
2021/10/06 02:29:32;;;;;;;8.43;6.60;;;14.20;99.90;;;;;;5053684;28;20433;-51
2021/10/06 02:32:00;;;;;;;7.07;6.37;;;14.10;99.90;;;;;;5054080;28;20494;-51
2021/10/06 02:34:26;;;;;;;7.10;6.50;;;14.00;99.90;;;;;;5053856;28;20434;-50
2021/10/06 02:36:53;;;;;;;6.43;5.77;;;13.70;99.90;;;;;;5054360;28;20971;-52
2021/10/06 02:39:20;;;;;;;7.50;6.80;;;13.90;99.90;;;;;;5053547;28;20823;-52
2021/10/06 02:41:46;;;;;;;6.90;6.20;;;14.20;99.90;;;;;;5053960;28;20954;-51
2021/10/06 02:44:13;;;;;;;7.83;7.13;;;14.10;99.90;;;;;;5053764;28;20437;-52
2021/10/06 02:46:40;;;;;;;7.77;7.00;;;14.10;99.90;;;;;;5054073;28;20812;-52
2021/10/06 02:49:08;;;;;;;7.40;6.70;;;14.00;99.90;;;;;;5053499;28;20445;-52
2021/10/06 02:51:34;;;;;;;7.60;6.93;;;13.90;99.90;;;;;;5053585;28;20891;-52
2021/10/06 02:54:01;;;;;;;8.30;6.67;;;13.90;99.90;;;;;;5053547;28;20488;-51
2021/10/06 02:56:28;;;;;;;7.70;6.90;;;13.90;99.90;;;;;;5053056;28;20460;-52
2021/10/06 02:58:54;;;;;;;7.60;6.73;;;13.70;99.90;;;;;;5052457;28;20444;-52
2021/10/06 03:01:21;;;;;;;8.53;6.40;;;13.80;99.90;;;;;;5053496;28;20446;-51
2021/10/06 03:03:47;;;;;;;8.13;7.40;;;13.90;99.90;;;;;;5053195;28;20438;-53
2021/10/06 03:06:15;;;;;;;8.90;7.13;;;13.70;99.90;;;;;;5053111;28;20506;-53
2021/10/06 03:08:42;;;;;;;9.23;7.60;;;13.80;99.90;;;;;;5052688;28;20434;-52
2021/10/06 03:11:09;;;;;;;8.07;6.43;;;14.00;99.90;;;;;;5053218;28;20449;-52
2021/10/06 03:13:35;;;;;;;9.97;6.87;;;13.10;99.90;;;;;;5053308;28;20489;-50
2021/10/06 03:16:02;;;;;;;7.47;6.40;;;14.00;99.90;;;;;;5053187;28;20923;-50
2021/10/06 03:18:29;;;;;;;8.00;7.20;;;13.50;99.90;;;;;;5052937;28;20420;-52
2021/10/06 03:20:55;;;;;;;7.73;6.93;;;13.90;99.90;;;;;;5053415;28;20430;-51
2021/10/06 03:23:23;;;;;;;7.80;7.10;;;13.50;99.90;;;;;;5053174;28;20525;-53
2021/10/06 03:25:50;;;;;;;7.23;6.63;;;13.90;99.90;;;;;;5053010;28;20464;-52
2021/10/06 03:28:17;;;;;;;7.53;6.37;;;14.30;99.90;;;;;;5034647;28;20446;-52
2021/10/06 03:30:43;;;;;;;10.57;7.47;;;13.90;99.90;;;;;;5052892;28;20779;-52
2021/10/06 03:33:10;;;;;;;8.20;7.27;;;14.30;99.90;;;;;;5052721;28;20466;-51
2021/10/06 03:35:37;;;;;;;8.10;7.30;;;14.00;99.90;;;;;;5052883;28;20435;-52
2021/10/06 03:38:03;;;;;;;8.90;8.10;;;14.10;99.90;;;;;;5052214;28;20476;-52
2021/10/06 03:40:31;;;;;;;7.70;6.93;;;14.10;99.90;;;;;;5052818;28;20431;-51
2021/10/06 03:42:58;;;;;;;8.97;8.07;;;14.30;99.90;;;;;;5052717;28;20439;-53
2021/10/06 03:45:24;;;;;;;8.73;7.60;;;14.20;99.90;;;;;;5052670;28;20430;-52
2021/10/06 03:47:51;;;;;;;7.83;6.90;;;14.10;99.90;;;;;;5034460;28;20528;-52
2021/10/06 03:50:19;;;;;;;8.43;7.60;;;13.60;99.90;;;;;;5052875;28;20448;-52
2021/10/06 03:52:46;;;;;;;13.63;7.73;;;14.10;99.90;;;;;;5052611;28;20546;-52
2021/10/06 03:55:13;;;;;;;8.07;6.73;;;13.70;99.90;;;;;;5052470;28;20452;-52
2021/10/06 03:57:41;;;;;;;7.40;6.70;;;14.20;99.90;;;;;;5051978;28;20458;-51
2021/10/06 04:00:10;;;;;;;7.67;6.97;;;14.20;99.90;;;;;;5052258;28;20442;-52
2021/10/06 04:02:37;;;;;;;8.93;7.83;;;14.20;99.90;;;;;;5052493;28;20409;-51
2021/10/06 04:05:05;;;;;;;7.23;6.53;;;14.20;99.90;;;;;;5052304;28;20426;-52
2021/10/06 04:07:31;;;;;;;7.20;6.50;;;14.20;99.90;;;;;;5052140;28;20820;-51
2021/10/06 04:09:58;;;;;;;7.70;7.00;;;14.20;99.90;;;;;;5051583;28;20441;-52
2021/10/06 04:12:25;;;;;;;8.60;6.87;;;14.30;99.90;;;;;;5052093;28;20512;-53
2021/10/06 04:14:53;;;;;;;9.07;8.07;;;14.30;99.90;;;;;;5034423;28;20481;-52
2021/10/06 04:17:19;;;;;;;8.00;7.17;;;14.40;99.90;;;;;;5052130;28;20816;-52
2021/10/06 04:19:46;;;;;;;8.70;7.80;;;14.30;99.90;;;;;;5033658;28;20456;-52
2021/10/06 04:22:13;;;;;;;7.70;7.10;;;14.20;99.90;;;;;;5052245;28;20799;-52
2021/10/06 04:24:40;;;;;;;8.63;7.73;;;13.70;99.90;;;;;;5051937;28;20929;-52
2021/10/06 04:27:06;;;;;;;10.30;8.40;;;14.10;99.90;;;;;;5033504;28;20466;-52
2021/10/06 04:29:33;;;;;;;9.50;7.87;;;14.70;99.90;;;;;;5051354;28;20438;-51
2021/10/06 04:32:01;;;;;;;7.50;6.80;;;14.20;99.90;;;;;;5033681;28;20551;-52
2021/10/06 04:34:28;;;;;;;7.90;7.20;;;14.10;99.90;;;;;;5051807;28;20476;-52
2021/10/06 04:36:54;;;;;;;9.00;7.70;;;14.20;99.90;;;;;;5051619;28;20466;-52
2021/10/06 04:39:21;;;;;;;8.23;7.47;;;14.10;99.90;;;;;;5051124;28;20555;-52
2021/10/06 04:41:48;;;;;;;8.20;7.40;;;14.60;99.90;;;;;;5051219;28;20437;-51
2021/10/06 04:44:14;;;;;;;9.03;8.13;;;13.80;99.90;;;;;;5051620;28;20429;-51
2021/10/06 04:46:41;;;;;;;8.60;7.70;;;14.70;99.90;;;;;;5051043;28;20776;-52
2021/10/06 04:49:09;;;;;;;9.83;8.83;;;14.10;99.90;;;;;;5050995;28;20432;-51
2021/10/06 04:51:36;;;;;;;10.20;8.07;;;14.20;99.90;;;;;;5051509;28;20430;-52
2021/10/06 04:54:03;;;;;;;9.10;8.27;;;14.20;99.90;;;;;;5051363;28;20481;-52
2021/10/06 04:56:29;;;;;;;9.50;8.50;;;14.00;99.90;;;;;;5051012;28;20465;-52
2021/10/06 04:58:56;;;;;;;9.17;8.27;;;14.30;99.90;;;;;;5033031;28;20796;-52
2021/10/06 05:01:23;;;;;;;8.37;7.47;;;14.10;99.90;;;;;;5051479;28;20450;-52
2021/10/06 05:03:49;;;;;;;8.70;7.90;;;14.40;99.90;;;;;;5051504;28;20518;-52
2021/10/06 05:06:17;;;;;;;10.43;8.23;;;14.20;99.90;;;;;;5051436;28;20912;-51
2021/10/06 05:08:45;;;;;;;7.90;7.20;;;14.20;99.90;;;;;;5050765;28;20931;-51
2021/10/06 05:11:12;;;;;;;9.20;6.90;;;14.20;99.90;;;;;;5050762;28;20511;-52
2021/10/06 05:13:39;;;;;;;9.70;7.93;;;14.30;99.90;;;;;;5050581;28;20979;-54
2021/10/06 05:16:05;;;;;;;9.37;6.97;;;14.00;99.90;;;;;;5050676;28;20490;-52
2021/10/06 05:18:32;;;;;;;8.43;7.63;;;13.80;99.90;;;;;;5050725;28;20441;-51
2021/10/06 05:20:59;;;;;;;8.50;7.70;;;14.10;99.90;;;;;;5052631;28;20428;-51
2021/10/06 05:23:27;;;;;;;10.13;7.47;;;14.40;99.90;;;;;;5055001;28;20519;-53
2021/10/06 05:25:54;;;;;;;9.13;7.57;;;14.00;99.90;;;;;;5054726;28;20429;-52
2021/10/06 05:28:21;;;;;;;8.60;7.33;;;14.10;99.90;;;;;;5053963;28;20954;-53
2021/10/06 05:30:47;;;;;;;7.57;6.80;;;14.00;99.90;;;;;;5054775;28;20405;-53
2021/10/06 05:33:14;;;;;;;7.77;6.40;;;14.10;99.90;;;;;;5054243;28;20451;-53
2021/10/06 05:35:41;;;;;;;8.43;6.33;;;14.00;99.90;;;;;;5054399;28;20404;-53
2021/10/06 05:38:08;;;;;;;10.60;7.33;;;14.30;99.90;;;;;;5053219;28;20566;-53
2021/10/06 05:40:35;;;;;;;8.63;6.40;;;13.80;99.90;;;;;;5054707;28;20434;-52
2021/10/06 05:43:02;;;;;;;13.37;8.37;;;13.50;99.90;;;;;;5054259;28;20453;-52
2021/10/06 05:45:29;;;;;;;11.87;7.93;;;13.90;99.90;;;;;;5054286;28;20426;-51
2021/10/06 05:47:56;;;;;;;12.97;8.80;;;13.70;99.90;;;;;;5052888;28;20464;-53
2021/10/06 05:50:22;;;;;;;11.30;7.73;;;14.00;99.90;;;;;;5053405;28;20430;-52
2021/10/06 05:52:49;;;;;;;10.80;7.90;;;14.00;99.90;;;;;;5054230;28;20432;-51
2021/10/06 05:55:16;;;;;;;8.80;7.10;;;14.00;99.90;;;;;;5054140;28;20795;-53
2021/10/06 05:57:43;;;;;;;8.40;7.50;;;13.90;99.90;;;;;;5053632;28;20451;-52
2021/10/06 06:00:12;;;;;;;12.53;8.40;;;13.70;99.90;;;;;;5054033;28;20445;-52
2021/10/06 06:02:43;;;;;;;12.10;9.30;;;13.70;99.90;;;;;;5053971;28;20442;-52
2021/10/06 06:05:09;;;;;;;9.53;7.60;;;14.00;99.90;;;;;;5053817;28;20468;-52
2021/10/06 06:07:36;;;;;;;8.17;7.00;;;14.00;99.90;;;;;;5053664;28;20812;-51
2021/10/06 06:10:04;;;;;;;13.23;7.30;;;13.80;99.90;;;;;;5053766;28;20433;-52
2021/10/06 06:12:30;;;;;;;6.97;6.27;;;13.90;99.90;;;;;;5053926;28;20453;-52
2021/10/06 06:14:58;;;;;;;8.97;8.07;;;13.70;99.90;;;;;;5053755;28;20485;-53
2021/10/06 06:17:25;;;;;;;11.30;7.50;;;13.80;99.90;;;;;;5053183;28;20472;-53
2021/10/06 06:19:52;;;;;;;9.27;7.10;;;13.90;99.90;;;;;;5053529;28;20456;-51
2021/10/06 06:22:18;;;;;;;8.10;7.30;;;13.90;99.90;;;;;;5054231;28;20533;-52
2021/10/06 06:24:45;;;;;;;8.63;6.63;;;13.80;99.90;;;;;;5054588;28;20444;-52
2021/10/06 06:27:12;;;;;;;8.43;6.73;;;13.90;99.90;;;;;;5053402;28;20959;-53
2021/10/06 06:29:38;;;;;;;13.27;8.53;;;13.80;99.90;;;;;;5052942;28;20441;-52
2021/10/06 06:32:07;;;;;;;12.97;8.10;;;13.60;99.90;;;;;;5054004;28;20420;-53
2021/10/06 06:34:33;;;;;;;10.63;8.37;;;14.20;99.90;;;;;;5053032;28;20990;-52
2021/10/06 06:37:00;;;;;;;9.40;8.50;;;13.60;99.90;;;;;;5053870;28;20483;-52
2021/10/06 06:39:27;;;;;;;10.03;7.40;;;14.00;99.90;;;;;;5053180;28;20453;-53
2021/10/06 06:41:53;;;;;;;9.43;6.90;;;14.00;99.90;;;;;;5053207;28;20437;-52
2021/10/06 06:44:20;;;;;;;6.90;6.07;;;14.40;99.90;;;;;;5052782;28;20474;-51
2021/10/06 06:46:47;;;;;;;6.93;6.13;;;14.00;99.90;;;;;;5053200;28;20541;-53
2021/10/06 06:49:14;;;;;;;8.07;6.20;;;14.10;99.90;;;;;;5052960;28;20446;-53
2021/10/06 06:51:41;;;;;;;6.80;6.10;;;14.20;99.90;;;;;;5053618;28;20904;-52
2021/10/06 06:54:08;;;;;;;6.10;5.00;;;14.10;99.90;;;;;;5052976;28;20452;-53
2021/10/06 06:56:38;;;;;;;7.63;5.50;;;14.10;99.90;;;;;;5052722;28;20786;-52
2021/10/06 06:59:06;;;;;;;8.27;6.40;;;14.30;99.90;;;;;;5052768;28;20528;-52
2021/10/06 07:01:32;;;;;;;9.30;5.87;;;13.70;99.90;;;;;;5052353;28;20412;-52
2021/10/06 07:03:59;;;;;;;12.10;8.03;;;14.10;99.90;;;;;;5052913;28;20507;-52
2021/10/06 07:06:32;;;;;;;8.30;5.77;;;14.30;99.90;;;;;;5051851;28;20463;-52
2021/10/06 07:08:58;;;;;;;7.10;5.60;;;13.90;99.90;;;;;;5052303;28;20503;-52
2021/10/06 07:11:25;;;;;;;7.70;5.10;;;14.30;99.90;;;;;;5053064;28;20421;-52
2021/10/06 07:13:52;;;;;;;7.53;4.73;;;14.60;99.90;;;;;;5052835;28;20565;-52
2021/10/06 07:16:19;;;;;;;6.10;4.30;;;14.70;99.90;;;;;;5052039;28;20453;-51
2021/10/06 07:18:45;;;;;;;5.63;5.00;;;14.40;99.90;;;;;;5052992;28;20457;-51
2021/10/06 07:21:12;;;;;;;5.17;4.30;;;14.30;99.90;;;;;;5052584;28;20442;-52
2021/10/06 07:23:40;;;;;;;7.87;3.90;;;14.20;99.90;;;;;;5052063;28;20867;-55
2021/10/06 07:26:07;;;;;;;10.17;4.47;;;14.30;99.90;;;;;;5051752;28;20432;-52
2021/10/06 07:28:34;;;;;;;7.27;3.60;;;14.50;99.90;;;;;;5034189;28;20559;-53
2021/10/06 07:31:01;;;;;;;12.17;6.80;;;14.50;99.90;;;;;;5052416;28;20434;-53
2021/10/06 07:33:27;;;;;;;7.27;4.30;;;14.50;99.90;;;;;;5052097;28;20472;-53
2021/10/06 07:35:54;;;;;;;4.47;3.80;;;14.40;99.90;;;;;;5052013;28;20473;-51
2021/10/06 07:38:21;;;;;;;8.00;3.70;;;14.50;99.90;;;;;;5051810;28;20524;-53
2021/10/06 07:40:49;;;;;;;3.60;3.03;;;14.60;99.90;;;;;;5052698;28;20499;-51
2021/10/06 07:43:15;;;;;;;6.30;3.80;;;14.40;99.90;;;;;;5051585;28;20495;-54
2021/10/06 07:45:45;;;;;;;4.93;3.53;;;14.60;99.90;;;;;;5052065;28;20405;-51
2021/10/06 07:48:11;;;;;;;5.00;3.70;;;14.50;99.90;;;;;;5051794;28;20441;-54
2021/10/06 07:50:38;;;;;;;5.03;3.83;;;14.20;99.90;;;;;;5051591;28;20839;-53
2021/10/06 07:53:05;;;;;;;5.40;3.30;;;14.10;99.90;;;;;;5052117;28;20787;-53
2021/10/06 07:55:32;;;;;;;7.23;3.30;;;14.60;99.90;;;;;;5052689;28;20451;-53
2021/10/06 07:58:00;;;;;;;5.40;3.57;;;14.60;99.90;;;;;;5052065;28;20995;-53
2021/10/06 08:00:26;;;;;;;9.60;4.30;;;14.60;99.90;;;;;;5052067;28;20432;-54
2021/10/06 08:02:53;;;;;;;5.60;3.40;;;14.30;99.90;;;;;;5051966;28;20437;-54
2021/10/06 08:05:20;;;;;;;12.43;3.83;;;14.60;99.90;;;;;;5052357;28;20436;-52
2021/10/06 08:07:46;;;;;;;4.77;2.90;;;14.80;99.90;;;;;;5051236;28;20456;-53
2021/10/06 08:10:13;;;;;;;4.73;3.37;;;14.70;99.90;;;;;;5051902;28;20476;-53
2021/10/06 08:12:40;;;;;;;3.63;2.50;;;14.70;99.90;;;;;;5052037;28;20772;-52
2021/10/06 08:15:10;;;;;;;4.27;2.57;;;14.80;99.90;;;;;;5051712;28;20961;-52
2021/10/06 08:17:37;;;;;;;5.70;2.70;;;14.70;99.90;;;;;;5051384;28;20454;-53
2021/10/06 08:20:04;;;;;;;4.13;2.10;;;14.80;99.90;;;;;;5051413;28;20434;-52
2021/10/06 08:22:31;;;;;;;4.60;2.27;;;15.00;99.90;;;;;;5051282;28;20804;-52
2021/10/06 08:24:58;;;;;;;5.67;2.20;;;14.70;99.90;;;;;;5052125;28;20784;-52
2021/10/06 08:27:24;;;;;;;6.77;2.90;;;14.80;99.90;;;;;;5051181;28;20443;-52
2021/10/06 08:29:51;;;;;;;5.30;2.90;;;15.00;99.90;;;;;;5051239;28;20412;-52
2021/10/06 08:32:19;;;;;;;7.57;2.90;;;14.90;99.90;;;;;;5051086;28;20430;-52
2021/10/06 08:34:46;;;;;;;5.40;2.73;;;14.90;99.90;;;;;;5051244;28;20473;-51
2021/10/06 08:37:12;;;;;;;5.30;3.37;;;15.40;99.90;;;;;;5084348;22;20489;-54
2021/10/06 08:39:39;;;;;;;6.97;3.00;;;15.00;99.90;;;;;;5071159;28;20416;-55
2021/10/06 08:42:08;;;;;;;8.87;3.30;;;15.00;99.90;;;;;;5071093;28;20441;-53
2021/10/06 08:44:36;;;;;;;14.30;8.40;;;15.30;99.90;;;;;;5071342;28;20431;-54
2021/10/06 08:47:03;;;;;;;3.00;2.40;;;15.10;99.90;;;;;;5071087;28;20453;-54
2021/10/06 08:49:31;;;;;;;5.67;3.47;;;15.10;99.90;;;;;;5071070;28;20430;-54
2021/10/06 08:51:58;;;;;;;3.40;2.10;;;15.10;99.90;;;;;;5071236;28;20433;-53
2021/10/06 08:54:25;;;;;;;5.40;2.60;;;15.20;99.90;;;;;;5070905;28;20490;-54
2021/10/06 08:56:52;;;;;;;4.53;2.03;;;14.80;99.90;;;;;;5070091;28;20449;-54
2021/10/06 08:59:18;;;;;;;3.10;1.80;;;15.30;99.90;;;;;;5070688;28;20940;-54
2021/10/06 09:01:46;;;;;;;3.40;1.70;;;15.30;99.90;;;;;;5071231;28;20437;-54
2021/10/06 09:04:13;;;;;;;2.43;2.00;;;15.30;99.90;;;;;;5071266;28;20441;-53
2021/10/06 09:06:42;;;;;;;6.40;2.20;;;15.40;99.90;;;;;;5070990;28;20534;-54
2021/10/06 09:09:17;;;;;;;6.13;1.70;;;15.40;99.90;;;;;;5071134;28;20445;-53
2021/10/06 09:11:46;;;;;;;2.70;1.77;;;15.40;99.90;;;;;;5070830;28;20429;-54
2021/10/06 09:14:13;;;;;;;4.23;1.90;;;15.50;99.90;;;;;;5071019;28;20429;-54
2021/10/06 09:16:40;;;;;;;9.20;2.30;;;15.50;99.90;;;;;;5070900;28;20477;-54
2021/10/06 09:19:09;;;;;;;3.80;2.40;;;15.50;99.90;;;;;;5070604;28;20452;-55
2021/10/06 09:21:37;;;;;;;7.23;2.53;;;15.60;99.90;;;;;;5070773;28;20449;-53
2021/10/06 09:24:08;;;;;;;2.70;1.70;;;15.60;99.90;;;;;;5071205;28;20430;-53
2021/10/06 09:26:35;;;;;;;4.30;1.83;;;16.10;99.90;;;;;;5071054;28;20464;-54
2021/10/06 09:29:02;;;;;;;3.57;2.13;;;15.70;99.90;;;;;;5070286;28;20425;-53
2021/10/06 09:31:29;;;;;;;4.70;2.50;;;15.70;99.90;;;;;;5070800;28;20432;-54
2021/10/06 09:33:58;;;;;;;3.60;1.63;;;15.70;99.90;;;;;;5070818;28;20456;-53
2021/10/06 09:36:28;;;;;;;4.60;2.07;;;15.70;99.90;;;;;;5070610;28;20477;-54
2021/10/06 09:38:57;;;;;;;7.00;2.77;;;15.80;99.90;;;;;;5070785;28;20995;-54
2021/10/06 09:41:39;;;;;;;6.57;3.03;;;15.90;99.90;;;;;;5071261;28;20487;-55
2021/10/06 09:44:11;;;;;;;5.30;2.00;;;16.00;99.90;;;;;;5070546;28;20524;-54
2021/10/06 09:46:50;;;;;;;5.70;1.90;;;16.10;99.90;;;;;;5070359;28;20464;-54
2021/10/06 09:49:19;;;;;;;6.80;2.47;;;16.10;99.90;;;;;;5052181;28;20889;-53
2021/10/06 09:51:46;;;;;;;3.93;1.70;;;16.10;99.90;;;;;;5070309;28;20785;-54
2021/10/06 09:54:13;;;;;;;2.20;1.83;;;16.20;99.90;;;;;;5070298;28;20458;-55
2021/10/06 09:56:43;;;;;;;3.23;1.80;;;16.20;99.90;;;;;;5070752;28;20492;-54
2021/10/06 09:59:12;;;;;;;3.20;1.90;;;16.20;99.90;;;;;;5070564;28;20433;-55
2021/10/06 10:01:40;;;;;;;4.30;1.97;;;16.30;99.90;;;;;;5070497;28;20483;-55
2021/10/06 10:04:08;;;;;;;7.17;2.30;;;16.40;99.90;;;;;;5070260;28;20434;-54
2021/10/06 10:06:35;;;;;;;3.30;1.70;;;16.40;99.90;;;;;;5072270;28;20493;-53
2021/10/06 10:09:03;;;;;;;2.10;1.50;;;16.50;99.90;;;;;;5073767;28;20430;-53
2021/10/06 10:11:31;;;;;;;6.00;1.73;;;16.50;99.90;;;;;;5074304;28;20533;-54
2021/10/06 10:13:59;;;;;;;6.00;2.87;;;16.60;99.90;;;;;;5074136;28;20435;-53
2021/10/06 10:16:26;;;;;;;3.80;2.00;;;16.40;99.90;;;;;;5073752;28;20481;-54
2021/10/06 10:18:53;;;;;;;3.60;1.67;;;16.50;99.90;;;;;;5072068;28;20454;-53
2021/10/06 10:21:22;;;;;;;3.57;2.00;;;16.80;99.90;;;;;;5073895;28;20458;-52
2021/10/06 10:24:05;;;;;;;5.00;1.60;;;16.90;99.90;;;;;;5074165;28;20857;-53
2021/10/06 10:26:32;;;;;;;3.63;1.73;;;17.10;99.90;;;;;;5074272;28;20958;-53
2021/10/06 10:29:00;;;;;;;4.60;2.03;;;17.20;99.90;;;;;;5073470;28;20950;-53
2021/10/06 10:31:26;;;;;;;3.53;1.80;;;17.20;99.90;;;;;;5073367;28;20442;-54
2021/10/06 10:33:53;;;;;;;3.73;1.77;;;17.40;99.90;;;;;;5072808;28;20436;-54
2021/10/06 10:36:49;;;;;;;5.30;2.57;;;17.30;99.90;;;;;;5073141;28;20478;-53
2021/10/06 10:39:50;;;;;;;4.00;1.93;;;17.30;99.90;;;;;;5073251;28;20433;-54
2021/10/06 10:42:16;;;;;;;1.83;1.30;;;17.30;99.90;;;;;;5072985;28;20999;-53
2021/10/06 10:44:46;;;;;;;5.17;1.87;;;17.30;99.90;;;;;;5073089;28;20432;-54
2021/10/06 10:47:14;;;;;;;5.83;2.17;;;17.30;99.90;;;;;;5073037;28;20456;-54
2021/10/06 10:49:45;;;;;;;3.50;1.83;;;17.40;99.90;;;;;;5072733;28;20455;-53
2021/10/06 10:52:12;;;;;;;3.73;1.80;;;17.50;99.90;;;;;;5055006;28;20489;-53
2021/10/06 10:54:40;;;;;;;2.43;1.87;;;17.60;99.90;;;;;;5073125;28;20438;-54
2021/10/06 10:57:17;;;;;;;3.90;2.00;;;17.60;99.90;;;;;;5073053;28;20570;-52
2021/10/06 10:59:47;;;;;;;3.67;2.60;;;17.70;99.90;;;;;;5072707;28;20601;-52
2021/10/06 11:02:19;;;;;;;5.87;2.83;;;17.90;99.90;;;;;;5072662;28;20527;-53
2021/10/06 11:04:48;;;;;;;3.37;1.70;;;17.90;99.90;;;;;;5072877;28;20532;-52
2021/10/06 11:07:18;;;;;;;6.40;1.70;;;17.90;99.90;;;;;;5072964;28;20462;-53
2021/10/06 11:09:50;;;;;;;4.77;2.27;;;17.90;99.90;;;;;;5072203;28;20460;-52
2021/10/06 11:12:36;;;;;;;2.20;1.60;;;17.90;99.90;;;;;;5072350;28;20442;-52
2021/10/06 11:15:29;;;;;;;3.60;1.80;;;17.90;99.90;;;;;;5072480;28;20567;-52
2021/10/06 11:18:27;;;;;;;3.37;1.90;;;17.90;99.90;;;;;;5071396;28;20509;-53
2021/10/06 11:21:03;;;;;;;5.17;2.00;;;17.90;99.90;;;;;;5052423;28;20472;-53
2021/10/06 11:23:53;;;;;;;1.87;1.43;;;17.90;99.90;;;;;;5052412;28;20479;-52
2021/10/06 11:26:34;;;;;;;5.60;1.47;;;17.90;99.90;;;;;;5052511;28;20420;-53
2021/10/06 11:29:04;;;;;;;2.33;1.20;;;17.70;99.90;;;;;;5052142;28;20463;-52
2021/10/06 11:31:34;;;;;;;2.97;1.60;;;17.80;99.90;;;;;;5052716;28;20446;-52
2021/10/06 11:34:03;;;;;;;3.60;1.40;;;17.80;99.90;;;;;;5052458;28;20461;-52
2021/10/06 11:36:31;;;;;;;7.27;1.50;;;17.80;99.90;;;;;;5051832;28;20500;-51
2021/10/06 11:39:03;;;;;;;3.73;1.87;;;17.90;99.90;;;;;;5051930;28;20436;-53
2021/10/06 11:41:30;;;;;;;3.53;1.80;;;17.80;99.90;;;;;;5066780;28;20452;-52
2021/10/06 11:43:57;;;;;;;4.97;2.30;;;17.80;99.90;;;;;;5071551;28;20431;-52
2021/10/06 11:46:29;;;;;;;7.53;1.63;;;17.80;99.90;;;;;;5072132;28;20797;-55
2021/10/06 11:48:57;;;;;;;2.87;1.87;;;17.50;99.90;;;;;;5071458;28;20733;-52
2021/10/06 11:51:42;;;;;;;6.37;2.60;;;17.80;99.90;;;;;;5071781;28;20452;-54
2021/10/06 11:54:09;;;;;;;3.57;2.20;;;17.90;99.90;;;;;;5072025;28;20443;-53
2021/10/06 11:56:36;;;;;;;6.33;2.23;;;18.50;99.90;;;;;;5072076;28;20806;-53
2021/10/06 11:59:11;;;;;;;4.50;2.50;;;17.90;99.90;;;;;;5071572;28;20439;-53
2021/10/06 12:01:39;;;;;;;4.20;2.80;;;17.90;99.90;;;;;;5072089;28;20924;-53
2021/10/06 12:04:15;;;;;;;5.27;1.97;;;17.90;99.90;;;;;;5072070;28;20440;-53
2021/10/06 12:06:45;;;;;;;4.70;3.13;;;17.90;99.90;;;;;;5053917;28;20447;-53
2021/10/06 12:09:12;;;;;;;2.93;1.93;;;18.00;99.90;;;;;;5071030;28;20567;-52
2021/10/06 12:11:41;;;;;;;5.20;1.70;;;18.00;99.90;;;;;;5072331;28;20567;-52
2021/10/06 12:14:22;;;;;;;4.47;1.97;;;18.20;99.90;;;;;;5073640;28;20793;-53
2021/10/06 12:17:17;;;;;;;7.23;2.20;;;18.20;99.90;;;;;;5071562;28;20855;-53
2021/10/06 12:19:56;;;;;;;3.53;2.00;;;18.30;99.40;;;;;;5024230;28;20532;-52
2021/10/06 12:22:24;;;;;;;15.80;6.33;;;18.30;99.60;;;;;;5071955;28;20431;-53
2021/10/06 12:24:57;;;;;;;5.23;2.20;;;18.40;99.50;;;;;;5071477;28;20444;-52
2021/10/06 12:27:28;;;;;;;3.60;2.30;;;18.40;99.10;;;;;;5071274;28;20452;-53
2021/10/06 12:30:06;;;;;;;3.33;1.83;;;18.40;98.90;;;;;;5071139;28;20446;-52
2021/10/06 12:32:34;;;;;;;3.93;1.60;;;18.40;98.50;;;;;;5071216;28;20941;-51
2021/10/06 12:35:06;;;;;;;4.90;1.77;;;18.40;98.70;;;;;;5071334;28;20916;-53
2021/10/06 12:37:33;;;;;;;6.67;2.07;;;18.40;98.50;;;;;;5070970;28;20488;-53
2021/10/06 12:39:59;;;;;;;3.70;1.70;;;18.40;98.30;;;;;;5070956;28;20800;-53
2021/10/06 12:42:26;;;;;;;3.10;2.00;;;18.30;98.20;;;;;;5070732;28;20752;-53
2021/10/06 12:44:53;;;;;;;3.10;1.60;;;18.40;97.90;;;;;;5071030;28;20444;-53
2021/10/06 12:47:21;;;;;;;4.10;1.47;;;18.20;97.60;;;;;;5071160;28;20456;-53
2021/10/06 12:49:50;;;;;;;4.33;2.10;;;18.20;97.50;;;;;;5071071;28;20467;-52
2021/10/06 12:52:24;;;;;;;4.50;2.23;;;18.10;97.40;;;;;;5070970;28;20437;-52